Reardan, WA (99029)

2:28 AM PDT on March 28, 2015 (GMT -0700)
Four Mound Prairie | | Change Station
CLOSE
Current Station
Personal Weather Station
Location: Reardan, WA
Elevation: 2452 ft
Nearby Weather Stations

Elev 2452 ft 47.78 °N, 117.73 °W | Updated 14 seconds ago

Rain
Rain
50.7 °F
Feels Like 50.7 °F
N
16.8
Wind Variable Wind from SSW
Gusts 16.8 mph

Today
High -- | Low -- °F
--% Chance of Precip.
Yesterday
High -- | Low -- °F
Precip. -- in
6:37 AM 7:15 PM
First Quarter, 61% visible
Pressure 29.86 in
Visibility 9.0 miles
Clouds Few 4200 ft
Overcast 5500 ft
Dew Point 46 °F
Humidity 83%
Rainfall 0.13 in
Snow Depth Not available.
UV 0 out of 12
Pollen 8.90 out of 12
Air Quality Not available.
Flu Activity Not available.
SPECI KSKA 280913Z AUTO 21013KT 9SM -RA FEW042 OVC055 10/08 A2986 RMK AO2

More Conditions Fewer Conditions

Pressure 29.86 in
Visibility 9.0 miles
Clouds Few 4200 ft
Overcast 5500 ft
Dew Point 46 °F
Humidity 83%
Rainfall 0.13 in
Snow Depth Not available.
UV 0 out of 12
Pollen 8.90 out of 12
Air Quality Not available.
Flu Activity Not available.
SPECI KSKA 280913Z AUTO 21013KT 9SM -RA FEW042 OVC055 10/08 A2986 RMK AO2

More Conditions Fewer Conditions

10-Day Weather Forecast

Almanac

Astronomy

Mar. 28, 2015 Rise Set
Actual Time
Civil Twilight
Nautical Twilight
Astronomical Twilight
Moon
Length of Visible Light
Length of Day
Tomorrow will be .
, % of the Moon is Illuminated

Today's Extremes

State Highs State Lows

Community

WunderPhotos

Upload Photos

1,808,939 photos uploaded!

WunderBlogs® & News

Nearby

Air Quality

  Air Quality AQ Index Pollutant
Not available.

Snow Depth

Station Depth Elevation

Earthquake Activity

City Distance Mag. Time & Date
Minimum magnitude displayed is 2.5.

Coastal Water Temperatures

Place Temperature

Stations

Nearby Weather Stations

Station Location Temp. Windchill Dew Point Humidity Wind Precip. Elev Updated Type